sensor_id;sensor_type;location;lat;lon;timestamp;temperature;humidity
15127;DHT22;7664;52.008;4.748;2023-11-21T00:00:38;8.30;99.90
15127;DHT22;7664;52.008;4.748;2023-11-21T00:03:06;8.50;99.90
15127;DHT22;7664;52.008;4.748;2023-11-21T00:05:35;8.50;99.90
15127;DHT22;7664;52.008;4.748;2023-11-21T00:08:04;8.50;99.90
15127;DHT22;7664;52.008;4.748;2023-11-21T00:10:33;8.50;99.90
15127;DHT22;7664;52.008;4.748;2023-11-21T00:13:02;8.50;99.90
15127;DHT22;7664;52.008;4.748;2023-11-21T00:15:30;8.40;99.90
15127;DHT22;7664;52.008;4.748;2023-11-21T00:17:59;8.40;99.90
15127;DHT22;7664;52.008;4.748;2023-11-21T00:20:27;8.40;99.90
15127;DHT22;7664;52.008;4.748;2023-11-21T00:22:55;8.40;99.90
15127;DHT22;7664;52.008;4.748;2023-11-21T00:25:23;8.40;99.90
15127;DHT22;7664;52.008;4.748;2023-11-21T00:27:51;8.20;99.90
15127;DHT22;7664;52.008;4.748;2023-11-21T00:30:22;8.30;99.90
15127;DHT22;7664;52.008;4.748;2023-11-21T00:32:49;8.40;99.90
15127;DHT22;7664;52.008;4.748;2023-11-21T00:35:17;8.40;99.90
15127;DHT22;7664;52.008;4.748;2023-11-21T00:37:45;8.40;99.90
15127;DHT22;7664;52.008;4.748;2023-11-21T00:40:13;8.40;99.90
15127;DHT22;7664;52.008;4.748;2023-11-21T00:42:42;8.50;99.90
15127;DHT22;7664;52.008;4.748;2023-11-21T00:45:10;8.50;99.90
15127;DHT22;7664;52.008;4.748;2023-11-21T00:47:40;8.50;99.90
15127;DHT22;7664;52.008;4.748;2023-11-21T00:50:10;8.50;99.90
15127;DHT22;7664;52.008;4.748;2023-11-21T00:52:38;8.50;99.90
15127;DHT22;7664;52.008;4.748;2023-11-21T00:55:06;8.60;99.90
15127;DHT22;7664;52.008;4.748;2023-11-21T00:57:35;8.70;99.90
15127;DHT22;7664;52.008;4.748;2023-11-21T01:00:05;8.70;99.90
15127;DHT22;7664;52.008;4.748;2023-11-21T01:02:37;8.70;99.90
15127;DHT22;7664;52.008;4.748;2023-11-21T01:05:07;8.60;99.90
15127;DHT22;7664;52.008;4.748;2023-11-21T01:07:36;8.70;99.90
15127;DHT22;7664;52.008;4.748;2023-11-21T01:10:04;8.80;99.90
15127;DHT22;7664;52.008;4.748;2023-11-21T01:12:34;8.80;99.90
15127;DHT22;7664;52.008;4.748;2023-11-21T01:15:03;8.80;99.90
15127;DHT22;7664;52.008;4.748;2023-11-21T01:17:33;8.80;99.90
15127;DHT22;7664;52.008;4.748;2023-11-21T01:20:02;8.80;99.90
15127;DHT22;7664;52.008;4.748;2023-11-21T01:22:34;8.90;99.90
15127;DHT22;7664;52.008;4.748;2023-11-21T01:25:03;8.80;99.90
15127;DHT22;7664;52.008;4.748;2023-11-21T01:27:34;8.90;99.90
15127;DHT22;7664;52.008;4.748;2023-11-21T01:30:02;8.90;99.90
15127;DHT22;7664;52.008;4.748;2023-11-21T01:32:31;8.90;99.90
15127;DHT22;7664;52.008;4.748;2023-11-21T01:35:00;8.90;99.90
15127;DHT22;7664;52.008;4.748;2023-11-21T01:37:28;9.00;99.90
15127;DHT22;7664;52.008;4.748;2023-11-21T01:39:58;9.00;99.90
15127;DHT22;7664;52.008;4.748;2023-11-21T01:42:28;9.10;99.90
15127;DHT22;7664;52.008;4.748;2023-11-21T01:44:57;9.00;99.90
15127;DHT22;7664;52.008;4.748;2023-11-21T01:47:26;9.10;99.90
15127;DHT22;7664;52.008;4.748;2023-11-21T01:49:54;9.00;99.90
15127;DHT22;7664;52.008;4.748;2023-11-21T01:52:22;9.10;99.90
15127;DHT22;7664;52.008;4.748;2023-11-21T01:54:51;9.10;99.90
15127;DHT22;7664;52.008;4.748;2023-11-21T01:57:21;9.10;99.90
15127;DHT22;7664;52.008;4.748;2023-11-21T01:59:49;9.10;99.90
15127;DHT22;7664;52.008;4.748;2023-11-21T02:02:18;9.10;99.90
15127;DHT22;7664;52.008;4.748;2023-11-21T02:04:46;9.10;99.90
15127;DHT22;7664;52.008;4.748;2023-11-21T02:07:14;9.20;99.90
15127;DHT22;7664;52.008;4.748;2023-11-21T02:09:42;9.20;99.90
15127;DHT22;7664;52.008;4.748;2023-11-21T02:12:12;9.20;99.90
15127;DHT22;7664;52.008;4.748;2023-11-21T02:14:41;9.20;99.90
15127;DHT22;7664;52.008;4.748;2023-11-21T02:17:10;9.20;99.90
15127;DHT22;7664;52.008;4.748;2023-11-21T02:19:40;9.30;99.90
15127;DHT22;7664;52.008;4.748;2023-11-21T02:22:08;9.30;99.90
15127;DHT22;7664;52.008;4.748;2023-11-21T02:24:41;9.30;99.90
15127;DHT22;7664;52.008;4.748;2023-11-21T02:27:11;9.30;99.90
15127;DHT22;7664;52.008;4.748;2023-11-21T02:29:40;9.30;99.90
15127;DHT22;7664;52.008;4.748;2023-11-21T02:32:08;9.30;99.90
15127;DHT22;7664;52.008;4.748;2023-11-21T02:34:37;9.30;99.90
15127;DHT22;7664;52.008;4.748;2023-11-21T02:37:06;9.40;99.90
15127;DHT22;7664;52.008;4.748;2023-11-21T02:39:34;9.40;99.90
15127;DHT22;7664;52.008;4.748;2023-11-21T02:42:04;9.40;99.90
15127;DHT22;7664;52.008;4.748;2023-11-21T02:44:32;9.40;99.90
15127;DHT22;7664;52.008;4.748;2023-11-21T02:47:00;9.40;99.90
15127;DHT22;7664;52.008;4.748;2023-11-21T02:49:28;9.40;99.90
15127;DHT22;7664;52.008;4.748;2023-11-21T02:51:57;9.40;99.90
15127;DHT22;7664;52.008;4.748;2023-11-21T02:54:26;9.50;99.90
15127;DHT22;7664;52.008;4.748;2023-11-21T02:56:54;9.40;99.90
15127;DHT22;7664;52.008;4.748;2023-11-21T02:59:22;9.40;99.90
15127;DHT22;7664;52.008;4.748;2023-11-21T03:01:51;9.50;99.90
15127;DHT22;7664;52.008;4.748;2023-11-21T03:04:19;9.50;99.90
15127;DHT22;7664;52.008;4.748;2023-11-21T03:06:48;9.50;99.90
15127;DHT22;7664;52.008;4.748;2023-11-21T03:09:16;9.50;99.90
15127;DHT22;7664;52.008;4.748;2023-11-21T03:11:44;9.60;99.90
15127;DHT22;7664;52.008;4.748;2023-11-21T03:14:12;9.70;99.90
15127;DHT22;7664;52.008;4.748;2023-11-21T03:16:41;9.60;99.90
15127;DHT22;7664;52.008;4.748;2023-11-21T03:19:11;9.60;99.90
15127;DHT22;7664;52.008;4.748;2023-11-21T03:21:39;9.70;99.90
15127;DHT22;7664;52.008;4.748;2023-11-21T03:24:07;9.70;99.90
15127;DHT22;7664;52.008;4.748;2023-11-21T03:26:36;9.70;99.90
15127;DHT22;7664;52.008;4.748;2023-11-21T03:29:05;9.70;99.90
15127;DHT22;7664;52.008;4.748;2023-11-21T03:31:33;9.70;99.90
15127;DHT22;7664;52.008;4.748;2023-11-21T03:34:02;9.80;99.90
15127;DHT22;7664;52.008;4.748;2023-11-21T03:36:30;9.80;99.90
15127;DHT22;7664;52.008;4.748;2023-11-21T03:38:58;9.70;99.90
15127;DHT22;7664;52.008;4.748;2023-11-21T03:41:26;9.70;99.90
15127;DHT22;7664;52.008;4.748;2023-11-21T03:43:55;9.80;99.90
15127;DHT22;7664;52.008;4.748;2023-11-21T03:46:23;9.80;99.90
15127;DHT22;7664;52.008;4.748;2023-11-21T03:48:51;9.80;99.90
15127;DHT22;7664;52.008;4.748;2023-11-21T03:51:20;9.80;99.90
15127;DHT22;7664;52.008;4.748;2023-11-21T03:53:48;9.80;99.90
15127;DHT22;7664;52.008;4.748;2023-11-21T03:56:16;9.80;99.90
15127;DHT22;7664;52.008;4.748;2023-11-21T03:58:44;9.80;99.90
15127;DHT22;7664;52.008;4.748;2023-11-21T04:01:19;9.80;99.90
15127;DHT22;7664;52.008;4.748;2023-11-21T04:03:48;9.80;99.90
15127;DHT22;7664;52.008;4.748;2023-11-21T04:06:17;9.80;99.90
15127;DHT22;7664;52.008;4.748;2023-11-21T04:08:47;9.80;99.90
15127;DHT22;7664;52.008;4.748;2023-11-21T04:11:15;9.80;99.90
15127;DHT22;7664;52.008;4.748;2023-11-21T04:13:43;9.80;99.90
15127;DHT22;7664;52.008;4.748;2023-11-21T04:16:11;9.90;99.90
15127;DHT22;7664;52.008;4.748;2023-11-21T04:18:39;9.80;99.90
15127;DHT22;7664;52.008;4.748;2023-11-21T04:21:08;9.90;99.90
15127;DHT22;7664;52.008;4.748;2023-11-21T04:23:36;9.90;99.90
15127;DHT22;7664;52.008;4.748;2023-11-21T04:26:05;9.90;99.90
15127;DHT22;7664;52.008;4.748;2023-11-21T04:28:33;9.90;99.90
15127;DHT22;7664;52.008;4.748;2023-11-21T04:31:02;9.90;99.90
15127;DHT22;7664;52.008;4.748;2023-11-21T04:33:30;9.90;99.90
15127;DHT22;7664;52.008;4.748;2023-11-21T04:35:58;9.90;99.90
15127;DHT22;7664;52.008;4.748;2023-11-21T04:38:26;9.90;99.90
15127;DHT22;7664;52.008;4.748;2023-11-21T04:40:54;9.90;99.90
15127;DHT22;7664;52.008;4.748;2023-11-21T04:43:23;9.90;99.90
15127;DHT22;7664;52.008;4.748;2023-11-21T04:45:51;9.90;99.90
15127;DHT22;7664;52.008;4.748;2023-11-21T04:48:19;9.90;99.90
15127;DHT22;7664;52.008;4.748;2023-11-21T04:50:47;9.90;99.90
15127;DHT22;7664;52.008;4.748;2023-11-21T04:53:15;9.90;99.90
15127;DHT22;7664;52.008;4.748;2023-11-21T04:55:43;9.90;99.90
15127;DHT22;7664;52.008;4.748;2023-11-21T04:58:12;9.90;99.90
15127;DHT22;7664;52.008;4.748;2023-11-21T05:00:42;9.90;99.90
15127;DHT22;7664;52.008;4.748;2023-11-21T05:03:10;10.10;99.90
15127;DHT22;7664;52.008;4.748;2023-11-21T05:05:38;10.10;99.90
15127;DHT22;7664;52.008;4.748;2023-11-21T05:08:06;10.00;99.90
15127;DHT22;7664;52.008;4.748;2023-11-21T05:10:35;10.00;99.90
15127;DHT22;7664;52.008;4.748;2023-11-21T05:13:05;10.10;99.90
15127;DHT22;7664;52.008;4.748;2023-11-21T05:15:36;10.10;99.90
15127;DHT22;7664;52.008;4.748;2023-11-21T05:18:06;10.10;99.90
15127;DHT22;7664;52.008;4.748;2023-11-21T05:20:35;10.10;99.90
15127;DHT22;7664;52.008;4.748;2023-11-21T05:23:06;10.10;99.90
15127;DHT22;7664;52.008;4.748;2023-11-21T05:25:34;10.10;99.90
15127;DHT22;7664;52.008;4.748;2023-11-21T05:28:06;10.10;99.90
15127;DHT22;7664;52.008;4.748;2023-11-21T05:30:35;10.10;99.90
15127;DHT22;7664;52.008;4.748;2023-11-21T05:33:03;10.10;99.90
15127;DHT22;7664;52.008;4.748;2023-11-21T05:35:32;10.10;99.90
15127;DHT22;7664;52.008;4.748;2023-11-21T05:38:00;10.40;99.90
15127;DHT22;7664;52.008;4.748;2023-11-21T05:40:28;10.20;99.90
15127;DHT22;7664;52.008;4.748;2023-11-21T05:42:57;10.20;99.90
15127;DHT22;7664;52.008;4.748;2023-11-21T05:45:24;10.20;99.90
15127;DHT22;7664;52.008;4.748;2023-11-21T05:47:52;10.20;99.90
15127;DHT22;7664;52.008;4.748;2023-11-21T05:50:21;10.20;99.90
15127;DHT22;7664;52.008;4.748;2023-11-21T05:52:50;10.20;99.90
15127;DHT22;7664;52.008;4.748;2023-11-21T05:55:18;10.20;99.90
15127;DHT22;7664;52.008;4.748;2023-11-21T05:57:48;10.10;99.90
15127;DHT22;7664;52.008;4.748;2023-11-21T06:00:16;10.20;99.90
15127;DHT22;7664;52.008;4.748;2023-11-21T06:02:48;10.10;99.90
15127;DHT22;7664;52.008;4.748;2023-11-21T06:05:21;10.20;99.90
15127;DHT22;7664;52.008;4.748;2023-11-21T06:07:51;10.20;99.90
15127;DHT22;7664;52.008;4.748;2023-11-21T06:10:20;10.20;99.90
15127;DHT22;7664;52.008;4.748;2023-11-21T06:12:51;10.20;99.90
15127;DHT22;7664;52.008;4.748;2023-11-21T06:15:20;10.30;99.90
15127;DHT22;7664;52.008;4.748;2023-11-21T06:17:50;10.30;99.90
15127;DHT22;7664;52.008;4.748;2023-11-21T06:20:21;10.40;99.90
15127;DHT22;7664;52.008;4.748;2023-11-21T06:22:51;10.50;99.90
15127;DHT22;7664;52.008;4.748;2023-11-21T06:25:20;10.50;99.90
15127;DHT22;7664;52.008;4.748;2023-11-21T06:27:50;10.50;99.90
15127;DHT22;7664;52.008;4.748;2023-11-21T06:30:20;10.50;99.90
15127;DHT22;7664;52.008;4.748;2023-11-21T06:32:48;10.50;99.90
15127;DHT22;7664;52.008;4.748;2023-11-21T06:35:18;10.50;99.90
15127;DHT22;7664;52.008;4.748;2023-11-21T06:37:47;10.70;99.90
15127;DHT22;7664;52.008;4.748;2023-11-21T06:40:18;10.70;99.90
15127;DHT22;7664;52.008;4.748;2023-11-21T06:42:48;10.70;99.90
15127;DHT22;7664;52.008;4.748;2023-11-21T06:45:17;10.70;99.90
15127;DHT22;7664;52.008;4.748;2023-11-21T06:47:46;10.70;99.90
15127;DHT22;7664;52.008;4.748;2023-11-21T06:50:15;10.70;99.90
15127;DHT22;7664;52.008;4.748;2023-11-21T06:52:43;10.80;99.90
15127;DHT22;7664;52.008;4.748;2023-11-21T06:55:11;10.70;99.90
15127;DHT22;7664;52.008;4.748;2023-11-21T06:57:41;10.80;99.90
15127;DHT22;7664;52.008;4.748;2023-11-21T07:00:10;10.70;99.90
15127;DHT22;7664;52.008;4.748;2023-11-21T07:02:38;10.70;99.90
15127;DHT22;7664;52.008;4.748;2023-11-21T07:05:07;10.70;99.90
15127;DHT22;7664;52.008;4.748;2023-11-21T07:07:36;10.70;99.90
15127;DHT22;7664;52.008;4.748;2023-11-21T07:10:05;10.70;99.90
15127;DHT22;7664;52.008;4.748;2023-11-21T07:12:34;10.80;99.90
15127;DHT22;7664;52.008;4.748;2023-11-21T07:15:04;10.80;99.90
15127;DHT22;7664;52.008;4.748;2023-11-21T07:17:36;10.80;99.90
15127;DHT22;7664;52.008;4.748;2023-11-21T07:20:08;10.80;99.90
15127;DHT22;7664;52.008;4.748;2023-11-21T07:22:37;10.80;99.90
15127;DHT22;7664;52.008;4.748;2023-11-21T07:25:06;10.70;99.90
15127;DHT22;7664;52.008;4.748;2023-11-21T07:27:36;10.70;99.90
15127;DHT22;7664;52.008;4.748;2023-11-21T07:30:07;10.70;99.90
15127;DHT22;7664;52.008;4.748;2023-11-21T07:32:37;10.80;99.90
15127;DHT22;7664;52.008;4.748;2023-11-21T07:35:08;10.80;99.90
15127;DHT22;7664;52.008;4.748;2023-11-21T07:37:36;10.70;99.90
15127;DHT22;7664;52.008;4.748;2023-11-21T07:40:06;10.80;99.90
15127;DHT22;7664;52.008;4.748;2023-11-21T07:42:36;10.70;99.90
15127;DHT22;7664;52.008;4.748;2023-11-21T07:45:06;10.80;99.90
15127;DHT22;7664;52.008;4.748;2023-11-21T07:47:35;10.80;99.90
15127;DHT22;7664;52.008;4.748;2023-11-21T07:50:04;13.50;99.90
15127;DHT22;7664;52.008;4.748;2023-11-21T07:52:35;10.80;99.90
15127;DHT22;7664;52.008;4.748;2023-11-21T07:55:04;10.80;99.90
15127;DHT22;7664;52.008;4.748;2023-11-21T07:57:32;10.80;99.90
15127;DHT22;7664;52.008;4.748;2023-11-21T08:00:00;10.80;99.90
15127;DHT22;7664;52.008;4.748;2023-11-21T08:02:39;10.90;99.90
15127;DHT22;7664;52.008;4.748;2023-11-21T08:05:09;10.90;99.90
15127;DHT22;7664;52.008;4.748;2023-11-21T08:07:50;11.00;99.90
15127;DHT22;7664;52.008;4.748;2023-11-21T08:10:18;10.90;99.90
15127;DHT22;7664;52.008;4.748;2023-11-21T08:12:48;10.90;99.90
15127;DHT22;7664;52.008;4.748;2023-11-21T08:15:18;11.00;99.90
15127;DHT22;7664;52.008;4.748;2023-11-21T08:17:48;10.90;99.90
15127;DHT22;7664;52.008;4.748;2023-11-21T08:20:16;11.10;99.90
15127;DHT22;7664;52.008;4.748;2023-11-21T08:22:45;11.00;99.90
15127;DHT22;7664;52.008;4.748;2023-11-21T08:25:14;11.10;99.90
15127;DHT22;7664;52.008;4.748;2023-11-21T08:27:44;11.20;99.90
15127;DHT22;7664;52.008;4.748;2023-11-21T08:30:12;11.20;99.90
15127;DHT22;7664;52.008;4.748;2023-11-21T08:32:40;11.20;99.90
15127;DHT22;7664;52.008;4.748;2023-11-21T08:35:10;11.20;99.90
15127;DHT22;7664;52.008;4.748;2023-11-21T08:37:41;11.30;99.90
15127;DHT22;7664;52.008;4.748;2023-11-21T08:40:10;11.20;99.90
15127;DHT22;7664;52.008;4.748;2023-11-21T08:42:43;11.20;99.90
15127;DHT22;7664;52.008;4.748;2023-11-21T08:45:12;11.30;99.90
15127;DHT22;7664;52.008;4.748;2023-11-21T08:47:40;11.20;99.90
15127;DHT22;7664;52.008;4.748;2023-11-21T08:50:12;11.30;99.90
15127;DHT22;7664;52.008;4.748;2023-11-21T08:52:42;11.30;99.90
15127;DHT22;7664;52.008;4.748;2023-11-21T08:55:10;11.20;99.90
15127;DHT22;7664;52.008;4.748;2023-11-21T08:57:40;11.20;99.90
15127;DHT22;7664;52.008;4.748;2023-11-21T09:00:09;11.20;99.90
15127;DHT22;7664;52.008;4.748;2023-11-21T09:02:40;11.20;99.90
15127;DHT22;7664;52.008;4.748;2023-11-21T09:05:09;11.10;99.90
15127;DHT22;7664;52.008;4.748;2023-11-21T09:07:41;11.20;99.90
15127;DHT22;7664;52.008;4.748;2023-11-21T09:10:10;11.20;99.90
15127;DHT22;7664;52.008;4.748;2023-11-21T09:12:38;11.20;99.90
15127;DHT22;7664;52.008;4.748;2023-11-21T09:15:07;11.20;99.90
15127;DHT22;7664;52.008;4.748;2023-11-21T09:17:36;11.20;99.90
15127;DHT22;7664;52.008;4.748;2023-11-21T09:20:06;11.30;99.90
15127;DHT22;7664;52.008;4.748;2023-11-21T09:22:38;11.30;99.90
15127;DHT22;7664;52.008;4.748;2023-11-21T09:25:07;11.40;99.90
15127;DHT22;7664;52.008;4.748;2023-11-21T09:27:36;11.40;99.90
15127;DHT22;7664;52.008;4.748;2023-11-21T09:30:05;11.30;99.90
15127;DHT22;7664;52.008;4.748;2023-11-21T09:32:37;11.30;99.90
15127;DHT22;7664;52.008;4.748;2023-11-21T09:35:07;11.30;99.90
15127;DHT22;7664;52.008;4.748;2023-11-21T09:37:36;11.30;99.90
15127;DHT22;7664;52.008;4.748;2023-11-21T09:40:10;11.30;99.90
15127;DHT22;7664;52.008;4.748;2023-11-21T09:42:43;11.40;99.90
15127;DHT22;7664;52.008;4.748;2023-11-21T09:45:21;11.40;99.90
15127;DHT22;7664;52.008;4.748;2023-11-21T09:47:52;11.40;99.90
15127;DHT22;7664;52.008;4.748;2023-11-21T09:50:20;11.30;99.90
15127;DHT22;7664;52.008;4.748;2023-11-21T09:52:55;11.30;99.90
15127;DHT22;7664;52.008;4.748;2023-11-21T09:55:26;11.30;99.90
15127;DHT22;7664;52.008;4.748;2023-11-21T09:57:56;11.30;99.90
15127;DHT22;7664;52.008;4.748;2023-11-21T10:00:24;11.30;99.90
15127;DHT22;7664;52.008;4.748;2023-11-21T10:02:54;11.40;99.90
15127;DHT22;7664;52.008;4.748;2023-11-21T10:05:23;11.30;99.90
15127;DHT22;7664;52.008;4.748;2023-11-21T10:07:56;11.40;99.90
15127;DHT22;7664;52.008;4.748;2023-11-21T10:10:27;11.30;99.90
15127;DHT22;7664;52.008;4.748;2023-11-21T10:12:57;11.40;99.90
15127;DHT22;7664;52.008;4.748;2023-11-21T10:15:25;11.30;99.90
15127;DHT22;7664;52.008;4.748;2023-11-21T10:17:55;11.30;99.90
15127;DHT22;7664;52.008;4.748;2023-11-21T10:20:24;11.30;99.90
15127;DHT22;7664;52.008;4.748;2023-11-21T10:22:53;11.20;99.90
15127;DHT22;7664;52.008;4.748;2023-11-21T10:25:21;11.20;99.90
15127;DHT22;7664;52.008;4.748;2023-11-21T10:27:57;11.20;99.90
15127;DHT22;7664;52.008;4.748;2023-11-21T10:30:32;11.20;99.90
15127;DHT22;7664;52.008;4.748;2023-11-21T10:33:04;11.20;99.90
15127;DHT22;7664;52.008;4.748;2023-11-21T10:35:42;11.10;99.90
15127;DHT22;7664;52.008;4.748;2023-11-21T10:38:14;11.10;99.90
15127;DHT22;7664;52.008;4.748;2023-11-21T10:40:42;11.10;99.90
15127;DHT22;7664;52.008;4.748;2023-11-21T10:43:15;11.10;99.90
15127;DHT22;7664;52.008;4.748;2023-11-21T10:45:43;11.00;99.90
15127;DHT22;7664;52.008;4.748;2023-11-21T10:48:13;11.00;99.90
15127;DHT22;7664;52.008;4.748;2023-11-21T10:50:43;11.00;99.90
15127;DHT22;7664;52.008;4.748;2023-11-21T10:53:11;11.00;99.90
15127;DHT22;7664;52.008;4.748;2023-11-21T10:55:40;11.00;99.90
15127;DHT22;7664;52.008;4.748;2023-11-21T10:58:10;11.00;99.90
15127;DHT22;7664;52.008;4.748;2023-11-21T11:00:43;11.10;99.90
15127;DHT22;7664;52.008;4.748;2023-11-21T11:03:13;11.20;99.90
15127;DHT22;7664;52.008;4.748;2023-11-21T11:05:44;11.20;99.90
15127;DHT22;7664;52.008;4.748;2023-11-21T11:08:21;11.20;99.90
15127;DHT22;7664;52.008;4.748;2023-11-21T11:10:55;11.10;99.90
15127;DHT22;7664;52.008;4.748;2023-11-21T11:13:23;11.20;99.90
15127;DHT22;7664;52.008;4.748;2023-11-21T11:15:58;11.10;99.90
15127;DHT22;7664;52.008;4.748;2023-11-21T11:18:28;11.20;99.90
15127;DHT22;7664;52.008;4.748;2023-11-21T11:21:01;11.10;99.90
15127;DHT22;7664;52.008;4.748;2023-11-21T11:23:45;11.30;99.90
15127;DHT22;7664;52.008;4.748;2023-11-21T11:26:23;11.30;99.90
15127;DHT22;7664;52.008;4.748;2023-11-21T11:29:03;11.20;99.90
15127;DHT22;7664;52.008;4.748;2023-11-21T11:31:46;11.20;99.90
15127;DHT22;7664;52.008;4.748;2023-11-21T11:34:30;11.20;99.90
15127;DHT22;7664;52.008;4.748;2023-11-21T11:37:02;11.20;99.90
15127;DHT22;7664;52.008;4.748;2023-11-21T11:39:31;11.20;99.90
15127;DHT22;7664;52.008;4.748;2023-11-21T11:42:03;11.20;99.90
15127;DHT22;7664;52.008;4.748;2023-11-21T11:44:51;11.10;99.90
15127;DHT22;7664;52.008;4.748;2023-11-21T11:47:26;11.10;99.90
15127;DHT22;7664;52.008;4.748;2023-11-21T11:50:04;11.10;99.90
15127;DHT22;7664;52.008;4.748;2023-11-21T11:52:37;11.10;99.90
15127;DHT22;7664;52.008;4.748;2023-11-21T11:55:07;11.10;99.90
15127;DHT22;7664;52.008;4.748;2023-11-21T11:57:38;11.10;99.90
15127;DHT22;7664;52.008;4.748;2023-11-21T12:00:14;11.10;99.90
15127;DHT22;7664;52.008;4.748;2023-11-21T12:02:49;11.10;99.90
15127;DHT22;7664;52.008;4.748;2023-11-21T12:05:19;11.10;99.90
15127;DHT22;7664;52.008;4.748;2023-11-21T12:07:49;11.10;99.90
15127;DHT22;7664;52.008;4.748;2023-11-21T12:10:20;11.30;99.90
15127;DHT22;7664;52.008;4.748;2023-11-21T12:12:53;11.20;99.90
15127;DHT22;7664;52.008;4.748;2023-11-21T12:15:22;11.20;99.90
15127;DHT22;7664;52.008;4.748;2023-11-21T12:17:52;11.20;99.90
15127;DHT22;7664;52.008;4.748;2023-11-21T12:20:21;11.20;99.90
15127;DHT22;7664;52.008;4.748;2023-11-21T12:22:52;11.00;99.90
15127;DHT22;7664;52.008;4.748;2023-11-21T12:25:21;11.10;99.90
15127;DHT22;7664;52.008;4.748;2023-11-21T12:27:51;11.10;99.90
15127;DHT22;7664;52.008;4.748;2023-11-21T12:30:20;11.00;99.90
15127;DHT22;7664;52.008;4.748;2023-11-21T12:32:49;11.00;99.90
15127;DHT22;7664;52.008;4.748;2023-11-21T12:35:22;11.00;99.90
15127;DHT22;7664;52.008;4.748;2023-11-21T12:37:51;10.90;99.90
15127;DHT22;7664;52.008;4.748;2023-11-21T12:40:20;11.00;99.90
15127;DHT22;7664;52.008;4.748;2023-11-21T12:42:52;11.20;99.90
15127;DHT22;7664;52.008;4.748;2023-11-21T12:45:21;11.00;99.90
15127;DHT22;7664;52.008;4.748;2023-11-21T12:47:54;11.00;99.90
15127;DHT22;7664;52.008;4.748;2023-11-21T12:50:26;10.90;99.90
15127;DHT22;7664;52.008;4.748;2023-11-21T12:52:59;10.90;99.90
15127;DHT22;7664;52.008;4.748;2023-11-21T12:55:30;10.90;99.90
15127;DHT22;7664;52.008;4.748;2023-11-21T12:58:02;10.90;99.90
15127;DHT22;7664;52.008;4.748;2023-11-21T13:00:36;10.90;99.90
15127;DHT22;7664;52.008;4.748;2023-11-21T13:03:06;10.90;99.90
15127;DHT22;7664;52.008;4.748;2023-11-21T13:05:38;10.90;99.90
15127;DHT22;7664;52.008;4.748;2023-11-21T13:08:09;11.00;99.90
15127;DHT22;7664;52.008;4.748;2023-11-21T13:10:41;11.00;99.90
15127;DHT22;7664;52.008;4.748;2023-11-21T13:13:11;11.00;99.90
15127;DHT22;7664;52.008;4.748;2023-11-21T13:15:50;10.90;99.90
15127;DHT22;7664;52.008;4.748;2023-11-21T13:18:19;11.00;99.90
15127;DHT22;7664;52.008;4.748;2023-11-21T13:20:50;11.00;99.90
15127;DHT22;7664;52.008;4.748;2023-11-21T13:23:18;11.00;99.90
15127;DHT22;7664;52.008;4.748;2023-11-21T13:25:46;10.90;99.90
15127;DHT22;7664;52.008;4.748;2023-11-21T13:28:27;10.90;99.90
15127;DHT22;7664;52.008;4.748;2023-11-21T13:31:01;10.90;99.90
15127;DHT22;7664;52.008;4.748;2023-11-21T13:33:38;11.00;99.90
15127;DHT22;7664;52.008;4.748;2023-11-21T13:36:11;10.90;99.90
15127;DHT22;7664;52.008;4.748;2023-11-21T13:38:41;10.90;99.90
15127;DHT22;7664;52.008;4.748;2023-11-21T13:41:11;10.80;99.90
15127;DHT22;7664;52.008;4.748;2023-11-21T13:43:40;10.90;99.90
15127;DHT22;7664;52.008;4.748;2023-11-21T13:46:11;10.90;99.90
15127;DHT22;7664;52.008;4.748;2023-11-21T13:48:44;10.90;99.90
15127;DHT22;7664;52.008;4.748;2023-11-21T13:51:19;10.90;99.90
15127;DHT22;7664;52.008;4.748;2023-11-21T13:53:56;11.10;99.90
15127;DHT22;7664;52.008;4.748;2023-11-21T13:56:24;10.90;99.90
15127;DHT22;7664;52.008;4.748;2023-11-21T13:58:55;10.90;99.90
15127;DHT22;7664;52.008;4.748;2023-11-21T14:01:24;10.90;99.90
15127;DHT22;7664;52.008;4.748;2023-11-21T14:04:01;10.80;99.90
15127;DHT22;7664;52.008;4.748;2023-11-21T14:06:40;10.80;99.90
15127;DHT22;7664;52.008;4.748;2023-11-21T14:09:15;10.80;99.90
15127;DHT22;7664;52.008;4.748;2023-11-21T14:11:50;10.70;99.90
15127;DHT22;7664;52.008;4.748;2023-11-21T14:14:21;10.80;99.90
15127;DHT22;7664;52.008;4.748;2023-11-21T14:16:50;10.70;99.90
15127;DHT22;7664;52.008;4.748;2023-11-21T14:19:18;10.70;99.90
15127;DHT22;7664;52.008;4.748;2023-11-21T14:21:49;10.70;99.90
15127;DHT22;7664;52.008;4.748;2023-11-21T14:24:17;10.60;99.90
15127;DHT22;7664;52.008;4.748;2023-11-21T14:26:46;10.60;99.90
15127;DHT22;7664;52.008;4.748;2023-11-21T14:29:17;10.50;99.90
15127;DHT22;7664;52.008;4.748;2023-11-21T14:31:47;10.40;99.90
15127;DHT22;7664;52.008;4.748;2023-11-21T14:34:15;10.50;99.90
15127;DHT22;7664;52.008;4.748;2023-11-21T14:36:49;10.50;99.90
15127;DHT22;7664;52.008;4.748;2023-11-21T14:39:17;10.90;99.90
15127;DHT22;7664;52.008;4.748;2023-11-21T14:41:50;10.50;99.90
15127;DHT22;7664;52.008;4.748;2023-11-21T14:44:20;10.50;99.90
15127;DHT22;7664;52.008;4.748;2023-11-21T14:46:53;10.60;99.90
15127;DHT22;7664;52.008;4.748;2023-11-21T14:49:25;10.40;99.90
15127;DHT22;7664;52.008;4.748;2023-11-21T14:51:56;10.40;99.90
15127;DHT22;7664;52.008;4.748;2023-11-21T14:54:27;10.40;99.90
15127;DHT22;7664;52.008;4.748;2023-11-21T14:57:08;10.40;99.90
15127;DHT22;7664;52.008;4.748;2023-11-21T14:59:43;10.40;99.90
15127;DHT22;7664;52.008;4.748;2023-11-21T15:02:14;10.40;99.90
15127;DHT22;7664;52.008;4.748;2023-11-21T15:04:48;10.40;99.90
15127;DHT22;7664;52.008;4.748;2023-11-21T15:07:20;10.40;99.90
15127;DHT22;7664;52.008;4.748;2023-11-21T15:09:48;10.50;99.90
15127;DHT22;7664;52.008;4.748;2023-11-21T15:12:17;10.40;99.90
15127;DHT22;7664;52.008;4.748;2023-11-21T15:14:47;10.50;99.90
15127;DHT22;7664;52.008;4.748;2023-11-21T15:17:19;10.50;99.90
15127;DHT22;7664;52.008;4.748;2023-11-21T15:19:51;10.50;99.90
15127;DHT22;7664;52.008;4.748;2023-11-21T15:22:21;10.40;99.90
15127;DHT22;7664;52.008;4.748;2023-11-21T15:24:50;10.40;99.90
15127;DHT22;7664;52.008;4.748;2023-11-21T15:27:20;10.40;99.90
15127;DHT22;7664;52.008;4.748;2023-11-21T15:29:48;10.40;99.90
15127;DHT22;7664;52.008;4.748;2023-11-21T15:32:17;10.20;99.90
15127;DHT22;7664;52.008;4.748;2023-11-21T15:34:45;10.20;99.90
15127;DHT22;7664;52.008;4.748;2023-11-21T15:37:14;10.40;99.90
15127;DHT22;7664;52.008;4.748;2023-11-21T15:39:43;10.20;99.90
15127;DHT22;7664;52.008;4.748;2023-11-21T15:42:12;10.20;99.90
15127;DHT22;7664;52.008;4.748;2023-11-21T15:44:40;10.20;99.90
15127;DHT22;7664;52.008;4.748;2023-11-21T15:47:08;10.20;99.90
15127;DHT22;7664;52.008;4.748;2023-11-21T15:49:37;10.20;99.90
15127;DHT22;7664;52.008;4.748;2023-11-21T15:52:05;10.20;99.90
15127;DHT22;7664;52.008;4.748;2023-11-21T15:54:37;10.20;99.90
15127;DHT22;7664;52.008;4.748;2023-11-21T15:57:08;10.20;99.90
15127;DHT22;7664;52.008;4.748;2023-11-21T15:59:39;10.30;99.90
15127;DHT22;7664;52.008;4.748;2023-11-21T16:02:09;10.10;99.90
15127;DHT22;7664;52.008;4.748;2023-11-21T16:04:39;10.20;99.90
15127;DHT22;7664;52.008;4.748;2023-11-21T16:07:08;10.30;99.90